Time;durP1;ratioP1;P1;durP2;ratioP2;P2;SDS_P1;SDS_P2;PMS_P1;PMS_P2;Temp;Humidity;BMP_temperature;BMP_pressure;BME280_temperature;BME280_humidity;BME280_pressure;Samples;Min_cycle;Max_cycle;Signal;HPM_P1;HPM_P2
2022/03/08 00:01:51;;;;;;;4.37;4.00;;;1.90;99.90;;;;;;5055675;28;20210;-87
2022/03/08 00:04:20;;;;;;;15.27;4.87;;;1.90;99.90;;;;;;5055403;28;20289;-87
2022/03/08 00:06:48;;;;;;;5.50;4.93;;;1.80;99.90;;;;;;5055270;28;20206;-87
2022/03/08 00:09:17;;;;;;;5.33;4.23;;;1.80;99.90;;;;;;5055162;28;20202;-87
2022/03/08 00:11:45;;;;;;;4.20;3.80;;;1.70;99.90;;;;;;5055042;28;20237;-87
2022/03/08 00:14:13;;;;;;;5.37;4.30;;;1.70;99.90;;;;;;5055116;28;20201;-87
2022/03/08 00:16:43;;;;;;;4.60;3.97;;;1.70;99.90;;;;;;5055137;28;20210;-87
2022/03/08 00:19:12;;;;;;;4.57;3.80;;;1.70;99.90;;;;;;5054882;28;20216;-87
2022/03/08 00:21:41;;;;;;;4.30;3.90;;;1.70;99.90;;;;;;5054731;28;20214;-87
2022/03/08 00:24:09;;;;;;;4.70;4.13;;;1.60;99.90;;;;;;5054666;28;20233;-87
2022/03/08 00:26:38;;;;;;;5.13;4.60;;;1.60;99.90;;;;;;5054958;28;20202;-87
2022/03/08 00:29:06;;;;;;;7.00;4.20;;;1.60;99.90;;;;;;5054349;28;20197;-87
2022/03/08 00:31:34;;;;;;;5.53;4.60;;;1.50;99.90;;;;;;5054586;28;20230;-87
2022/03/08 00:34:05;;;;;;;6.00;4.40;;;1.50;99.90;;;;;;5055071;28;20209;-86
2022/03/08 00:36:33;;;;;;;4.97;4.30;;;1.50;99.90;;;;;;5055889;28;20240;-87
2022/03/08 00:39:02;;;;;;;4.83;4.33;;;1.50;99.90;;;;;;5055955;28;20222;-87
2022/03/08 00:41:30;;;;;;;4.70;4.27;;;1.50;99.90;;;;;;5057328;28;20295;-87
2022/03/08 00:43:59;;;;;;;5.70;4.43;;;1.40;99.90;;;;;;5055415;28;20202;-87
2022/03/08 00:46:27;;;;;;;5.00;4.23;;;1.40;99.90;;;;;;5054633;28;20209;-86
2022/03/08 00:48:56;;;;;;;5.30;4.80;;;1.40;99.90;;;;;;5054450;28;20254;-86
2022/03/08 00:51:26;;;;;;;5.90;4.60;;;1.40;99.90;;;;;;5053685;28;20225;-87
2022/03/08 00:53:55;;;;;;;5.90;5.00;;;1.30;99.90;;;;;;5055281;28;20209;-87
2022/03/08 00:56:23;;;;;;;3.43;3.13;;;1.30;99.90;;;;;;5056070;28;20210;-87
2022/03/08 00:58:52;;;;;;;3.97;3.63;;;1.30;99.90;;;;;;5055584;28;20244;-87
2022/03/08 01:01:20;;;;;;;5.20;4.47;;;1.30;99.90;;;;;;5057119;28;20307;-88
2022/03/08 01:03:49;;;;;;;7.13;4.37;;;1.30;99.90;;;;;;5054278;28;20197;-87
2022/03/08 01:06:17;;;;;;;5.27;4.70;;;1.20;99.90;;;;;;5054328;28;20282;-87
2022/03/08 01:08:47;;;;;;;4.83;4.40;;;1.20;99.90;;;;;;5054794;28;20205;-87
2022/03/08 01:11:15;;;;;;;4.33;3.93;;;1.20;99.90;;;;;;5053945;28;20226;-87
2022/03/08 01:13:44;;;;;;;10.40;4.93;;;1.20;99.90;;;;;;5053750;28;20278;-87
2022/03/08 01:16:12;;;;;;;3.33;3.03;;;1.10;99.90;;;;;;5053788;28;20213;-87
2022/03/08 01:18:41;;;;;;;4.50;4.10;;;1.10;99.90;;;;;;5053793;28;20206;-87
2022/03/08 01:21:11;;;;;;;7.00;5.40;;;1.10;99.90;;;;;;5053794;28;20256;-87
2022/03/08 01:23:40;;;;;;;4.77;4.37;;;1.10;99.90;;;;;;5054048;28;20198;-87
2022/03/08 01:26:09;;;;;;;6.53;5.00;;;1.10;99.90;;;;;;5054361;28;20202;-87
2022/03/08 01:28:38;;;;;;;4.90;4.50;;;1.10;99.90;;;;;;5053751;28;20214;-87
2022/03/08 01:31:06;;;;;;;4.60;4.10;;;1.00;99.90;;;;;;5053996;28;20256;-87
2022/03/08 01:33:35;;;;;;;11.23;4.90;;;1.00;99.90;;;;;;5053402;28;20254;-87
2022/03/08 01:36:04;;;;;;;10.63;5.33;;;1.00;99.90;;;;;;5054001;28;20248;-87
2022/03/08 01:38:32;;;;;;;5.37;4.83;;;1.00;99.90;;;;;;5053740;28;20210;-87
2022/03/08 01:41:01;;;;;;;5.83;4.23;;;1.00;99.90;;;;;;5052779;28;20280;-87
2022/03/08 01:43:31;;;;;;;4.60;4.20;;;1.00;99.90;;;;;;5053436;28;20205;-87
2022/03/08 01:45:59;;;;;;;6.03;5.43;;;1.00;99.90;;;;;;5053694;28;20210;-87
2022/03/08 01:48:28;;;;;;;6.87;5.70;;;1.00;99.90;;;;;;5053653;28;20209;-87
2022/03/08 01:50:57;;;;;;;5.03;4.53;;;1.00;99.90;;;;;;5053262;28;20283;-86
2022/03/08 01:53:25;;;;;;;7.93;5.57;;;1.00;99.90;;;;;;5053806;28;20221;-87
2022/03/08 01:55:54;;;;;;;4.80;4.40;;;1.00;99.90;;;;;;5053390;28;20224;-87
2022/03/08 01:58:25;;;;;;;6.43;5.13;;;0.90;99.90;;;;;;5053371;28;20209;-86
2022/03/08 02:00:55;;;;;;;5.37;4.90;;;0.90;99.90;;;;;;5053205;28;20226;-87
2022/03/08 02:03:24;;;;;;;6.57;5.50;;;0.90;99.90;;;;;;5053773;28;20218;-87
2022/03/08 02:05:52;;;;;;;4.97;4.40;;;1.00;99.90;;;;;;5053341;28;20224;-86
2022/03/08 02:08:21;;;;;;;6.73;5.37;;;0.90;99.90;;;;;;5053120;28;20206;-87
2022/03/08 02:10:52;;;;;;;6.30;5.07;;;0.90;99.90;;;;;;5052767;28;20290;-87
2022/03/08 02:13:20;;;;;;;4.77;4.37;;;0.90;99.90;;;;;;5053137;28;20259;-87
2022/03/08 02:15:50;;;;;;;4.60;4.20;;;0.90;99.90;;;;;;5052813;28;20209;-87
2022/03/08 02:18:21;;;;;;;6.03;5.33;;;0.90;99.90;;;;;;5052877;28;20206;-87
2022/03/08 02:20:50;;;;;;;6.77;4.57;;;0.90;99.90;;;;;;5052641;28;20255;-88
2022/03/08 02:23:20;;;;;;;11.93;6.30;;;0.80;99.90;;;;;;5052812;28;20217;-87
2022/03/08 02:25:48;;;;;;;5.40;4.90;;;0.80;99.90;;;;;;5052968;28;20201;-87
2022/03/08 02:28:17;;;;;;;6.87;5.30;;;0.80;99.90;;;;;;5052899;28;20210;-86
2022/03/08 02:30:45;;;;;;;5.40;4.90;;;0.70;99.90;;;;;;5053152;28;20249;-87
2022/03/08 02:33:14;;;;;;;6.40;4.63;;;0.80;99.90;;;;;;5052477;28;20240;-87
2022/03/08 02:35:42;;;;;;;5.43;4.90;;;0.80;99.90;;;;;;5052346;28;20210;-87
2022/03/08 02:38:10;;;;;;;6.03;5.43;;;0.80;99.90;;;;;;5052577;28;20259;-87
2022/03/08 02:40:43;;;;;;;9.50;5.90;;;0.80;99.90;;;;;;5052906;28;20222;-87
2022/03/08 02:43:12;;;;;;;5.80;5.30;;;0.90;99.90;;;;;;5052845;28;20202;-87
2022/03/08 02:45:41;;;;;;;5.80;4.80;;;0.90;99.90;;;;;;5052944;28;20224;-88
2022/03/08 02:48:11;;;;;;;7.77;5.20;;;0.90;99.90;;;;;;5052313;28;20210;-87
2022/03/08 02:50:39;;;;;;;6.57;5.70;;;0.90;99.90;;;;;;5052423;28;20221;-87
2022/03/08 02:53:07;;;;;;;8.03;6.47;;;0.90;99.90;;;;;;5052322;28;20249;-87
2022/03/08 02:55:37;;;;;;;7.07;5.07;;;0.90;99.90;;;;;;5053445;28;20283;-86
2022/03/08 02:58:07;;;;;;;6.30;5.67;;;0.90;99.90;;;;;;5052568;28;20197;-87
2022/03/08 03:00:35;;;;;;;7.63;6.23;;;1.00;99.90;;;;;;5051911;28;20217;-87
2022/03/08 03:03:07;;;;;;;5.47;4.97;;;1.00;99.90;;;;;;5035046;28;20212;-87
2022/03/08 03:05:36;;;;;;;5.27;4.63;;;1.00;99.90;;;;;;5052308;28;20237;-87
2022/03/08 03:08:07;;;;;;;7.60;5.87;;;1.00;99.90;;;;;;5052520;28;20267;-87
2022/03/08 03:10:35;;;;;;;5.50;4.97;;;1.00;99.90;;;;;;5052354;28;20303;-87
2022/03/08 03:13:04;;;;;;;6.73;6.13;;;1.00;99.90;;;;;;5052127;28;20218;-88
2022/03/08 03:15:34;;;;;;;9.73;5.97;;;1.00;99.90;;;;;;5052731;28;20208;-87
2022/03/08 03:18:02;;;;;;;6.20;5.60;;;1.00;99.90;;;;;;5052326;28;20288;-87
2022/03/08 03:20:31;;;;;;;6.80;6.13;;;1.00;99.90;;;;;;5052050;28;20226;-87
2022/03/08 03:22:59;;;;;;;6.63;5.97;;;1.10;99.90;;;;;;5052215;28;20212;-87
2022/03/08 03:25:27;;;;;;;6.53;5.83;;;1.10;99.90;;;;;;5052096;28;20202;-87
2022/03/08 03:27:56;;;;;;;6.83;5.43;;;1.10;99.90;;;;;;5052038;28;20205;-87
2022/03/08 03:30:24;;;;;;;8.27;6.27;;;1.10;99.90;;;;;;5051948;28;20303;-87
2022/03/08 03:32:54;;;;;;;6.27;5.10;;;1.10;99.90;;;;;;5051620;28;20205;-87
2022/03/08 03:35:23;;;;;;;6.57;5.97;;;1.20;99.90;;;;;;5052840;28;20198;-87
2022/03/08 03:37:51;;;;;;;6.40;5.80;;;1.20;99.90;;;;;;5051955;28;20213;-87
2022/03/08 03:40:19;;;;;;;8.73;6.23;;;1.20;99.90;;;;;;5051548;28;20275;-87
2022/03/08 03:42:48;;;;;;;6.00;5.50;;;1.30;99.90;;;;;;5052030;28;20202;-87
2022/03/08 03:45:16;;;;;;;7.00;5.43;;;1.30;99.90;;;;;;5051382;28;20245;-87
2022/03/08 03:47:45;;;;;;;12.80;5.73;;;1.30;99.90;;;;;;5051585;28;20267;-87
2022/03/08 03:50:15;;;;;;;5.83;5.20;;;1.30;99.90;;;;;;5052153;28;20229;-87
2022/03/08 03:52:43;;;;;;;8.47;5.60;;;1.40;99.90;;;;;;5051903;28;20225;-87
2022/03/08 03:55:13;;;;;;;5.77;5.27;;;1.40;99.90;;;;;;5051572;28;20237;-87
2022/03/08 03:57:42;;;;;;;6.13;5.47;;;1.40;99.90;;;;;;5051982;28;20205;-87
2022/03/08 04:00:12;;;;;;;6.53;5.87;;;1.40;99.90;;;;;;5051350;28;20268;-87
2022/03/08 04:02:41;;;;;;;6.10;5.50;;;1.40;99.90;;;;;;5051840;28;20209;-87
2022/03/08 04:05:11;;;;;;;7.07;5.80;;;1.40;99.90;;;;;;5054212;28;20206;-87
2022/03/08 04:07:40;;;;;;;5.43;4.93;;;1.30;99.90;;;;;;5055353;28;20210;-87
2022/03/08 04:10:10;;;;;;;5.47;4.97;;;1.30;99.90;;;;;;5055372;28;20221;-87
2022/03/08 04:12:39;;;;;;;14.90;5.90;;;1.30;99.90;;;;;;5055092;28;20206;-87
2022/03/08 04:15:08;;;;;;;7.57;6.37;;;1.30;99.90;;;;;;5055299;28;20221;-87
2022/03/08 04:17:37;;;;;;;5.63;5.13;;;1.20;99.90;;;;;;5055452;28;20279;-87
2022/03/08 04:20:07;;;;;;;7.67;6.37;;;1.20;99.90;;;;;;5055483;28;20226;-87
2022/03/08 04:22:35;;;;;;;6.60;5.60;;;1.10;99.90;;;;;;5055113;28;20220;-86
2022/03/08 04:25:06;;;;;;;6.53;5.17;;;1.10;99.90;;;;;;5055653;28;20251;-87
2022/03/08 04:27:35;;;;;;;8.00;6.40;;;1.00;99.90;;;;;;5055476;28;20221;-87
2022/03/08 04:30:04;;;;;;;5.50;5.00;;;0.90;99.90;;;;;;5055173;28;20284;-86
2022/03/08 04:32:32;;;;;;;7.40;5.80;;;0.90;99.90;;;;;;5054934;28;20209;-86
2022/03/08 04:35:01;;;;;;;6.40;5.40;;;0.90;99.90;;;;;;5055561;28;20226;-87
2022/03/08 04:37:29;;;;;;;5.73;5.23;;;0.90;99.90;;;;;;5055094;28;20225;-87
2022/03/08 04:39:57;;;;;;;7.63;6.20;;;0.80;99.90;;;;;;5054918;28;20226;-86
2022/03/08 04:42:28;;;;;;;6.17;5.57;;;0.80;99.90;;;;;;5055068;28;20214;-87
2022/03/08 04:44:56;;;;;;;6.73;5.00;;;0.80;99.90;;;;;;5054811;28;20218;-87
2022/03/08 04:47:25;;;;;;;5.63;5.13;;;0.80;99.90;;;;;;5054724;28;20228;-87
2022/03/08 04:49:53;;;;;;;6.20;5.60;;;0.80;99.90;;;;;;5055528;28;20226;-87
2022/03/08 04:52:22;;;;;;;5.93;5.30;;;0.70;99.90;;;;;;5055144;28;20206;-87
2022/03/08 04:54:50;;;;;;;5.27;4.73;;;0.70;99.90;;;;;;5054919;28;20214;-86
2022/03/08 04:57:18;;;;;;;5.93;5.37;;;0.70;99.90;;;;;;5055081;28;20202;-86
2022/03/08 04:59:48;;;;;;;5.77;5.20;;;0.70;99.90;;;;;;5053941;28;20226;-87
2022/03/08 05:02:17;;;;;;;5.07;4.60;;;0.70;99.90;;;;;;5054122;28;20213;-87
2022/03/08 05:04:45;;;;;;;8.60;5.70;;;0.70;99.90;;;;;;5054575;28;20206;-87
2022/03/08 05:07:14;;;;;;;5.00;4.60;;;0.60;99.90;;;;;;5054346;28;20218;-87
2022/03/08 05:09:42;;;;;;;4.70;4.30;;;0.60;99.90;;;;;;5053892;28;20230;-87
2022/03/08 05:12:11;;;;;;;6.10;5.23;;;0.60;99.90;;;;;;5054029;28;20202;-87
2022/03/08 05:14:40;;;;;;;5.90;5.17;;;0.60;99.90;;;;;;5053833;28;20221;-87
2022/03/08 05:17:10;;;;;;;8.17;5.43;;;0.60;99.90;;;;;;5054193;28;20214;-87
2022/03/08 05:19:38;;;;;;;5.73;5.23;;;0.50;99.90;;;;;;5053882;28;20206;-87
2022/03/08 05:22:06;;;;;;;5.37;4.90;;;0.50;99.90;;;;;;5053922;28;20294;-87
2022/03/08 05:24:35;;;;;;;6.30;5.70;;;0.50;99.90;;;;;;5053543;28;20255;-87
2022/03/08 05:27:04;;;;;;;6.07;5.07;;;0.60;99.90;;;;;;5053713;28;20213;-87
2022/03/08 05:29:32;;;;;;;5.67;5.07;;;0.50;99.90;;;;;;5053550;28;20210;-87
2022/03/08 05:32:00;;;;;;;6.17;5.63;;;0.60;99.90;;;;;;5053668;28;20206;-87
2022/03/08 05:34:31;;;;;;;6.17;5.50;;;0.60;99.90;;;;;;5053897;28;20242;-87
2022/03/08 05:36:59;;;;;;;8.87;6.03;;;0.50;99.90;;;;;;5053674;28;20252;-87
2022/03/08 05:39:29;;;;;;;4.73;4.40;;;0.60;99.90;;;;;;5053458;28;20205;-87
2022/03/08 05:41:57;;;;;;;8.57;6.33;;;0.50;99.90;;;;;;5053233;28;20201;-86
2022/03/08 05:44:25;;;;;;;7.67;5.33;;;0.50;99.90;;;;;;5053352;28;20233;-86
2022/03/08 05:46:55;;;;;;;5.57;4.57;;;0.60;99.90;;;;;;5053610;28;20205;-87
2022/03/08 05:49:29;;;;;;;5.60;5.10;;;0.60;99.90;;;;;;5053657;28;20233;-87
2022/03/08 05:51:59;;;;;;;6.10;5.50;;;0.60;99.90;;;;;;5053569;28;20292;-87
2022/03/08 05:54:28;;;;;;;5.53;5.03;;;0.70;99.90;;;;;;5053523;28;20212;-86
2022/03/08 05:56:56;;;;;;;6.13;5.53;;;0.70;99.90;;;;;;5053386;28;20279;-87
2022/03/08 05:59:25;;;;;;;6.97;5.60;;;0.70;99.90;;;;;;5053296;28;20206;-87
2022/03/08 06:01:53;;;;;;;5.33;4.87;;;0.80;99.90;;;;;;5053112;28;20213;-87
2022/03/08 06:04:22;;;;;;;7.20;5.80;;;0.80;99.90;;;;;;5053080;28;20206;-87
2022/03/08 06:06:52;;;;;;;6.87;5.97;;;0.80;99.90;;;;;;5052806;28;20209;-86
2022/03/08 06:09:22;;;;;;;7.77;6.30;;;0.80;99.90;;;;;;5053306;28;20213;-87
2022/03/08 06:11:50;;;;;;;7.63;5.33;;;0.80;99.90;;;;;;5052991;28;20244;-87
2022/03/08 06:14:19;;;;;;;9.57;5.20;;;0.80;99.90;;;;;;5053196;28;20205;-87
2022/03/08 06:16:47;;;;;;;5.33;4.83;;;0.80;99.90;;;;;;5052622;28;20295;-86
2022/03/08 06:19:16;;;;;;;5.93;5.40;;;0.80;99.90;;;;;;5052869;28;20198;-87
2022/03/08 06:21:44;;;;;;;7.30;5.53;;;0.90;99.90;;;;;;5052969;28;20229;-86
2022/03/08 06:24:13;;;;;;;7.47;6.30;;;0.90;99.90;;;;;;5052516;28;20210;-86
2022/03/08 06:26:45;;;;;;;6.17;5.60;;;0.90;99.90;;;;;;5052417;28;20206;-86
2022/03/08 06:29:13;;;;;;;5.40;4.93;;;1.00;99.90;;;;;;5052960;28;20206;-87
2022/03/08 06:31:42;;;;;;;5.97;5.37;;;1.00;99.90;;;;;;5052300;28;20237;-87
2022/03/08 06:34:11;;;;;;;5.97;5.37;;;1.10;99.90;;;;;;5053113;28;20281;-86
2022/03/08 06:36:41;;;;;;;6.57;5.07;;;1.10;99.90;;;;;;5052619;28;20232;-86
2022/03/08 06:39:09;;;;;;;6.27;5.63;;;1.10;99.90;;;;;;5052567;28;20213;-86
2022/03/08 06:41:45;;;;;;;5.13;4.70;;;1.20;99.90;;;;;;5056129;28;20221;-86
2022/03/08 06:44:13;;;;;;;7.03;5.80;;;1.30;99.90;;;;;;5052532;28;20206;-86
2022/03/08 06:46:44;;;;;;;11.47;6.43;;;1.30;99.90;;;;;;5052813;28;20209;-85
2022/03/08 06:49:13;;;;;;;6.33;5.03;;;1.40;99.90;;;;;;5052430;28;20232;-87
2022/03/08 06:51:42;;;;;;;8.63;6.07;;;1.40;99.90;;;;;;5052072;28;20221;-87
2022/03/08 06:54:10;;;;;;;6.77;5.80;;;1.50;99.90;;;;;;5052675;28;20259;-87
2022/03/08 06:56:38;;;;;;;6.50;4.70;;;1.50;99.90;;;;;;5052517;28;20221;-86
2022/03/08 06:59:08;;;;;;;6.03;4.65;;;1.60;99.90;;;;;;5052433;28;20266;-86
2022/03/08 07:01:37;;;;;;;6.83;6.10;;;1.60;99.90;;;;;;5052145;28;20275;-86
2022/03/08 07:04:05;;;;;;;5.63;5.13;;;1.70;99.90;;;;;;5052299;28;20230;-86
2022/03/08 07:06:34;;;;;;;7.25;5.65;;;1.70;99.90;;;;;;5052337;28;20206;-86
2022/03/08 07:09:02;;;;;;;9.87;6.60;;;1.80;99.90;;;;;;5052912;28;20209;-86
2022/03/08 07:11:31;;;;;;;7.00;5.85;;;1.90;99.90;;;;;;5052349;28;20294;-86
2022/03/08 07:13:59;;;;;;;8.40;6.03;;;1.90;99.90;;;;;;5052591;28;20197;-86
2022/03/08 07:16:29;;;;;;;8.73;5.85;;;1.90;99.90;;;;;;5052351;28;20253;-86
2022/03/08 07:18:58;;;;;;;5.97;4.80;;;2.10;99.90;;;;;;5052029;28;20220;-87
2022/03/08 07:21:27;;;;;;;5.78;5.28;;;2.20;99.90;;;;;;5052382;28;20287;-87
2022/03/08 07:23:55;;;;;;;5.97;5.10;;;2.30;99.90;;;;;;5052316;28;20205;-86
2022/03/08 07:26:23;;;;;;;9.10;5.33;;;2.30;99.90;;;;;;5051490;28;20198;-87
2022/03/08 07:28:52;;;;;;;14.15;6.45;;;2.40;99.90;;;;;;5053361;28;20279;-87
2022/03/08 07:31:20;;;;;;;6.43;5.47;;;2.50;99.90;;;;;;5051630;28;20242;-86
2022/03/08 07:33:51;;;;;;;7.47;5.97;;;2.50;99.90;;;;;;5052253;28;20209;-86
2022/03/08 07:36:19;;;;;;;6.78;5.32;;;2.60;99.90;;;;;;5052486;28;20237;-87
2022/03/08 07:38:48;;;;;;;6.32;5.18;;;2.70;99.90;;;;;;5054446;28;20242;-87
2022/03/08 07:41:17;;;;;;;6.20;5.38;;;2.70;99.90;;;;;;5056576;28;20221;-87
2022/03/08 07:43:45;;;;;;;6.60;5.80;;;2.90;99.90;;;;;;5056018;28;20232;-86
2022/03/08 07:46:14;;;;;;;6.38;5.55;;;2.90;99.90;;;;;;5056424;28;20210;-87
2022/03/08 07:48:43;;;;;;;5.00;4.50;;;3.00;99.90;;;;;;5057198;28;20289;-87
2022/03/08 07:51:31;;;;;;;6.78;5.25;;;3.00;99.90;;;;;;5056736;28;20226;-86
2022/03/08 07:54:00;;;;;;;5.13;4.63;;;3.10;99.90;;;;;;5055587;28;20206;-87
2022/03/08 07:56:29;;;;;;;5.15;4.65;;;3.20;99.90;;;;;;5055448;28;20279;-86
2022/03/08 07:58:57;;;;;;;7.88;4.93;;;3.30;99.90;;;;;;5056003;28;20213;-87
2022/03/08 08:01:26;;;;;;;7.03;5.63;;;3.40;99.90;;;;;;5055390;28;20299;-87
2022/03/08 08:03:54;;;;;;;6.70;5.75;;;3.50;99.90;;;;;;5055751;28;20217;-87
2022/03/08 08:06:23;;;;;;;5.78;5.05;;;3.50;99.90;;;;;;5055710;28;20251;-87
2022/03/08 08:08:53;;;;;;;5.18;4.47;;;3.60;99.90;;;;;;5055747;28;20213;-87
2022/03/08 08:11:21;;;;;;;6.40;4.95;;;3.70;99.90;;;;;;5055311;28;20229;-87
2022/03/08 08:13:50;;;;;;;6.53;5.28;;;3.70;99.90;;;;;;5055761;28;20209;-87
2022/03/08 08:16:19;;;;;;;5.63;4.65;;;3.90;99.90;;;;;;5055484;28;20322;-86
2022/03/08 08:18:48;;;;;;;7.85;5.28;;;3.90;99.90;;;;;;5055381;28;20287;-87
2022/03/08 08:21:16;;;;;;;19.88;4.63;;;4.00;99.90;;;;;;5054955;28;20225;-87
2022/03/08 08:23:44;;;;;;;8.73;5.38;;;4.10;99.90;;;;;;5055497;28;20220;-87
2022/03/08 08:26:15;;;;;;;8.38;4.97;;;4.20;99.90;;;;;;5055094;28;20202;-87
2022/03/08 08:28:43;;;;;;;7.20;4.93;;;4.30;99.90;;;;;;5055622;28;20210;-87
2022/03/08 08:31:11;;;;;;;10.75;5.65;;;4.40;99.90;;;;;;5055884;28;20230;-87
2022/03/08 08:33:40;;;;;;;8.32;5.53;;;4.50;99.90;;;;;;5056137;28;20216;-87
2022/03/08 08:36:08;;;;;;;5.88;5.03;;;4.50;99.90;;;;;;5056619;28;20230;-87
2022/03/08 08:38:36;;;;;;;6.38;5.15;;;4.70;99.90;;;;;;5056179;28;20232;-87
2022/03/08 08:41:05;;;;;;;7.10;5.57;;;4.70;99.90;;;;;;5055111;28;20233;-87
2022/03/08 08:43:35;;;;;;;4.90;4.45;;;4.70;99.90;;;;;;5055161;28;20197;-87
2022/03/08 08:46:04;;;;;;;8.68;5.65;;;4.80;99.90;;;;;;5054797;28;20210;-87
2022/03/08 08:48:32;;;;;;;7.10;4.90;;;4.90;99.90;;;;;;5055462;28;20210;-87
2022/03/08 08:51:01;;;;;;;5.75;4.82;;;5.00;99.90;;;;;;5054277;28;20241;-87
2022/03/08 08:53:30;;;;;;;5.47;4.97;;;5.10;99.90;;;;;;5055299;28;20285;-86
2022/03/08 08:55:59;;;;;;;7.88;5.38;;;5.30;99.90;;;;;;5055238;28;20214;-86
2022/03/08 08:58:27;;;;;;;9.88;5.15;;;5.40;99.90;;;;;;5059366;28;20228;-87
2022/03/08 09:00:57;;;;;;;6.60;4.93;;;5.60;99.60;;;;;;5054113;28;20271;-87
2022/03/08 09:03:27;;;;;;;19.50;5.35;;;5.90;99.50;;;;;;5054816;28;20271;-87
2022/03/08 09:05:55;;;;;;;8.20;6.05;;;6.10;98.10;;;;;;5054751;28;20205;-87
2022/03/08 09:08:24;;;;;;;6.15;5.55;;;6.40;98.20;;;;;;5054597;28;20256;-87
2022/03/08 09:10:53;;;;;;;5.53;5.03;;;6.70;97.30;;;;;;5054210;28;20263;-87
2022/03/08 09:13:22;;;;;;;6.47;5.60;;;7.00;96.80;;;;;;5054239;28;20206;-86
2022/03/08 09:15:51;;;;;;;6.43;5.82;;;7.30;95.90;;;;;;5054605;28;20206;-86
2022/03/08 09:18:21;;;;;;;5.95;5.35;;;7.80;95.90;;;;;;5054099;28;20317;-86
2022/03/08 09:20:50;;;;;;;8.80;5.65;;;8.80;94.20;;;;;;5054272;28;20221;-87
2022/03/08 09:23:19;;;;;;;5.88;5.18;;;9.80;92.40;;;;;;5054290;28;20206;-87
2022/03/08 09:25:47;;;;;;;5.18;4.38;;;10.70;89.30;;;;;;5054026;28;20202;-87
2022/03/08 09:28:16;;;;;;;4.72;4.25;;;11.50;85.80;;;;;;5053498;28;20245;-87
2022/03/08 09:30:46;;;;;;;5.40;4.90;;;11.90;81.20;;;;;;5053725;28;20217;-87
2022/03/08 09:33:15;;;;;;;9.07;4.82;;;11.90;78.90;;;;;;5053990;28;20198;-86
2022/03/08 09:35:47;;;;;;;6.05;5.45;;;12.10;78.90;;;;;;5054254;28;20209;-87
2022/03/08 09:38:15;;;;;;;4.93;4.53;;;12.30;76.10;;;;;;5053884;28;20234;-87
2022/03/08 09:40:44;;;;;;;13.23;4.97;;;12.30;75.40;;;;;;5053562;28;20226;-86
2022/03/08 09:43:14;;;;;;;8.52;5.47;;;12.90;74.60;;;;;;5053612;28;20229;-86
2022/03/08 09:45:43;;;;;;;6.15;5.55;;;12.80;71.50;;;;;;5053456;28;20210;-87
2022/03/08 09:48:11;;;;;;;5.20;4.75;;;12.30;71.50;;;;;;5053442;28;20313;-86
2022/03/08 09:50:40;;;;;;;6.25;5.15;;;12.20;73.30;;;;;;5053497;28;20234;-87
2022/03/08 09:53:11;;;;;;;6.72;5.43;;;12.50;72.30;;;;;;5053298;28;20279;-87
2022/03/08 09:55:40;;;;;;;5.82;5.22;;;12.60;72.60;;;;;;5053577;28;20218;-87
2022/03/08 09:58:08;;;;;;;6.32;5.72;;;12.70;70.90;;;;;;5053566;28;20201;-86
2022/03/08 10:00:37;;;;;;;5.80;5.20;;;12.80;70.60;;;;;;5053280;28;20217;-87
2022/03/08 10:03:10;;;;;;;4.43;4.10;;;12.70;71.00;;;;;;5052736;28;20205;-87
2022/03/08 10:05:41;;;;;;;4.60;4.13;;;12.50;70.80;;;;;;5053045;28;20202;-86
2022/03/08 10:08:13;;;;;;;6.85;4.47;;;12.00;70.00;;;;;;5053090;28;20302;-87
2022/03/08 10:10:47;;;;;;;7.03;4.38;;;11.60;70.40;;;;;;5052816;28;20248;-87
2022/03/08 10:13:39;;;;;;;3.78;3.47;;;10.50;71.20;;;;;;5053391;28;20237;-87
2022/03/08 10:16:14;;;;;;;4.13;3.45;;;10.40;73.80;;;;;;5053063;28;20224;-86
2022/03/08 10:18:45;;;;;;;5.78;4.28;;;10.30;72.60;;;;;;5053061;28;20231;-86
2022/03/08 10:21:29;;;;;;;5.93;3.83;;;10.00;74.30;;;;;;5052533;28;20225;-87
2022/03/08 10:24:01;;;;;;;7.95;4.32;;;10.30;74.70;;;;;;5052972;28;20237;-86
2022/03/08 10:26:30;;;;;;;4.55;3.88;;;10.60;72.80;;;;;;5053412;28;20251;-87
2022/03/08 10:29:00;;;;;;;4.95;4.20;;;10.60;73.40;;;;;;5053073;28;20287;-87
2022/03/08 10:31:28;;;;;;;4.60;4.13;;;10.80;72.90;;;;;;5052684;28;20218;-86
2022/03/08 10:34:05;;;;;;;5.97;4.72;;;10.60;74.70;;;;;;5052844;28;20210;-86
2022/03/08 10:36:35;;;;;;;6.10;4.90;;;11.00;75.50;;;;;;5053082;28;20213;-86
2022/03/08 10:39:11;;;;;;;4.13;3.78;;;11.20;71.80;;;;;;5052631;28;20235;-87
2022/03/08 10:41:47;;;;;;;5.18;4.60;;;10.80;71.40;;;;;;5052891;28;20233;-86
2022/03/08 10:44:16;;;;;;;4.80;3.85;;;10.40;72.70;;;;;;5052520;28;20213;-86
2022/03/08 10:46:59;;;;;;;5.35;3.75;;;9.90;74.40;;;;;;5052630;28;20209;-86
2022/03/08 10:49:28;;;;;;;3.97;3.67;;;9.70;76.10;;;;;;5052772;28;20205;-86
2022/03/08 10:52:01;;;;;;;4.13;3.72;;;10.20;75.50;;;;;;5052099;28;20268;-86
2022/03/08 10:54:31;;;;;;;3.50;3.20;;;10.70;73.30;;;;;;5052427;28;20201;-86
2022/03/08 10:57:00;;;;;;;8.27;4.13;;;11.30;70.80;;;;;;5052494;28;20226;-87
2022/03/08 10:59:28;;;;;;;3.70;3.38;;;12.00;71.70;;;;;;5052483;28;20275;-87
2022/03/08 11:01:57;;;;;;;3.40;3.10;;;12.60;68.80;;;;;;5052437;28;20213;-87
2022/03/08 11:04:26;;;;;;;4.95;3.97;;;13.00;66.50;;;;;;5052800;28;20201;-87
2022/03/08 11:06:57;;;;;;;5.72;3.90;;;12.60;67.00;;;;;;5052769;28;20202;-88
2022/03/08 11:09:25;;;;;;;4.78;4.38;;;12.20;68.70;;;;;;5052207;28;20240;-87
2022/03/08 11:11:56;;;;;;;4.95;3.75;;;11.70;67.40;;;;;;5052305;28;20198;-87
2022/03/08 11:14:24;;;;;;;5.38;4.72;;;11.10;67.80;;;;;;5052095;28;20206;-87
2022/03/08 11:16:53;;;;;;;6.78;4.25;;;10.60;69.90;;;;;;5052318;28;20256;-86
2022/03/08 11:19:27;;;;;;;4.32;3.92;;;10.90;72.20;;;;;;5052617;28;20212;-86
2022/03/08 11:21:57;;;;;;;4.40;4.00;;;11.40;69.90;;;;;;5052133;28;20211;-87
2022/03/08 11:24:27;;;;;;;4.50;4.13;;;11.60;68.90;;;;;;5052236;28;20236;-86
2022/03/08 11:26:58;;;;;;;3.42;3.15;;;12.00;68.30;;;;;;5052053;28;20217;-87
2022/03/08 11:29:29;;;;;;;5.00;4.50;;;12.30;67.00;;;;;;5051792;28;20225;-87
2022/03/08 11:32:01;;;;;;;4.05;3.75;;;12.70;67.40;;;;;;5051635;28;20209;-86
2022/03/08 11:34:37;;;;;;;4.55;4.20;;;13.10;64.90;;;;;;5052215;28;20205;-86
2022/03/08 11:37:15;;;;;;;4.22;3.88;;;13.00;62.20;;;;;;5052150;28;20220;-87
2022/03/08 11:39:44;;;;;;;5.07;4.45;;;12.00;62.70;;;;;;5051836;28;20229;-86
2022/03/08 11:42:32;;;;;;;6.68;4.25;;;11.30;64.40;;;;;;5051960;28;20206;-87
2022/03/08 11:45:02;;;;;;;5.60;4.22;;;10.70;69.50;;;;;;5051998;28;20216;-86
2022/03/08 11:47:39;;;;;;;6.80;3.53;;;10.60;67.70;;;;;;5051834;28;20212;-85
2022/03/08 11:50:19;;;;;;;4.35;3.90;;;10.40;67.40;;;;;;5052045;28;20229;-86
2022/03/08 11:53:04;;;;;;;8.85;4.43;;;10.30;68.60;;;;;;5051748;28;20228;-87
2022/03/08 11:55:34;;;;;;;4.03;3.38;;;10.80;69.10;;;;;;5052060;28;20213;-87
2022/03/08 11:58:06;;;;;;;3.40;3.10;;;11.30;67.30;;;;;;5051774;28;20202;-87
2022/03/08 12:00:43;;;;;;;2.92;2.72;;;11.30;66.30;;;;;;5051966;28;20295;-86
2022/03/08 12:03:15;;;;;;;4.18;3.03;;;11.30;66.10;;;;;;5051699;28;20213;-87
2022/03/08 12:05:58;;;;;;;2.90;2.60;;;11.70;65.00;;;;;;5051566;28;20228;-86
2022/03/08 12:08:47;;;;;;;3.17;2.88;;;12.50;63.60;;;;;;5051596;28;20233;-86
2022/03/08 12:11:30;;;;;;;2.70;2.50;;;12.90;61.50;;;;;;5051793;28;20317;-86
2022/03/08 12:14:23;;;;;;;2.75;2.53;;;12.60;61.20;;;;;;5051323;28;20208;-86
2022/03/08 12:16:54;;;;;;;3.03;2.75;;;12.70;62.00;;;;;;5051979;28;20217;-86
2022/03/08 12:19:33;;;;;;;3.47;3.10;;;12.80;62.60;;;;;;5051646;28;20206;-86
2022/03/08 12:22:02;;;;;;;3.72;3.38;;;12.60;61.10;;;;;;5051509;28;20205;-87
2022/03/08 12:24:40;;;;;;;3.45;3.15;;;12.30;61.50;;;;;;5051716;28;20210;-86
2022/03/08 12:27:10;;;;;;;4.13;3.75;;;11.90;61.30;;;;;;5055222;28;20253;-86
2022/03/08 12:29:58;;;;;;;4.57;3.70;;;11.30;61.30;;;;;;5054845;28;20250;-86
2022/03/08 12:32:35;;;;;;;6.22;4.10;;;10.90;62.50;;;;;;5055095;28;20228;-86
2022/03/08 12:35:10;;;;;;;4.53;3.40;;;11.30;63.20;;;;;;5055138;28;20201;-86
2022/03/08 12:37:43;;;;;;;3.45;3.15;;;12.00;63.40;;;;;;5055393;28;20212;-86
2022/03/08 12:40:33;;;;;;;4.85;3.67;;;12.70;62.70;;;;;;5055183;28;20225;-85
2022/03/08 12:43:05;;;;;;;3.72;3.40;;;13.10;60.40;;;;;;5054723;28;20259;-87
2022/03/08 12:45:42;;;;;;;6.07;3.58;;;12.90;59.10;;;;;;5055344;28;20217;-87
2022/03/08 12:48:12;;;;;;;4.68;3.65;;;12.70;59.50;;;;;;5054760;28;20206;-87
2022/03/08 12:50:43;;;;;;;4.57;4.15;;;13.00;58.30;;;;;;5058865;28;20279;-85
2022/03/08 12:53:13;;;;;;;9.05;3.95;;;13.30;59.80;;;;;;5055687;28;20206;-85
2022/03/08 12:55:43;;;;;;;5.00;4.32;;;13.60;59.10;;;;;;5054767;28;20197;-86
2022/03/08 12:58:14;;;;;;;5.82;3.83;;;14.00;58.20;;;;;;5054913;28;20225;-86
2022/03/08 13:00:46;;;;;;;4.25;3.88;;;14.50;57.60;;;;;;5054912;28;20225;-86
2022/03/08 13:03:16;;;;;;;4.13;3.72;;;14.90;56.20;;;;;;5054761;28;20210;-87
2022/03/08 13:05:47;;;;;;;4.38;3.67;;;14.90;54.70;;;;;;5054830;28;20206;-86
2022/03/08 13:08:17;;;;;;;5.47;4.07;;;14.70;54.80;;;;;;5054787;28;20210;-86